createdAt,value
2024-02-03T00:02:12.490Z,0.75
2024-02-03T00:14:12.941Z,0.40
2024-02-03T00:26:13.378Z,0.55
2024-02-03T00:38:13.843Z,0.38
2024-02-03T00:50:14.304Z,0.07
2024-02-03T01:02:14.720Z,-0.06
2024-02-03T01:14:15.198Z,-0.33
2024-02-03T01:26:15.678Z,-0.46
2024-02-03T01:38:16.100Z,-0.45
2024-02-03T01:50:16.529Z,-0.70
2024-02-03T02:02:16.971Z,-0.84
2024-02-03T02:14:17.427Z,-0.76
2024-02-03T02:26:17.899Z,-0.96
2024-02-03T02:38:18.370Z,-0.91
2024-02-03T02:50:18.780Z,-0.91
2024-02-03T03:02:19.266Z,-0.75
2024-02-03T03:14:19.701Z,-0.64
2024-02-03T03:26:20.154Z,-0.77
2024-02-03T03:38:20.603Z,-1.13
2024-02-03T03:50:21.174Z,-1.16
2024-02-03T04:02:21.524Z,-1.40
2024-02-03T04:14:21.953Z,-1.53
2024-02-03T04:26:22.428Z,-1.55
2024-02-03T04:38:22.872Z,-1.38
2024-02-03T04:50:23.313Z,-1.57
2024-02-03T05:02:23.729Z,-1.60
2024-02-03T05:14:24.220Z,-1.82
2024-02-03T05:26:24.656Z,-1.88
2024-02-03T05:38:25.104Z,-1.79
2024-02-03T05:50:25.578Z,-1.94
2024-02-03T06:02:25.980Z,-1.65
2024-02-03T06:14:26.478Z,-1.69
2024-02-03T06:26:26.900Z,-1.69
2024-02-03T06:38:27.339Z,-2.07
2024-02-03T06:50:27.816Z,-2.00
2024-02-03T07:02:28.315Z,-1.86
2024-02-03T07:14:28.770Z,-1.91
2024-02-03T07:26:29.140Z,-1.76
2024-02-03T07:38:29.629Z,-1.69
2024-02-03T07:50:30.092Z,-1.13
2024-02-03T08:02:30.511Z,-0.27
2024-02-03T08:14:30.963Z,0.78
2024-02-03T08:26:31.467Z,1.80
2024-02-03T08:38:31.864Z,2.34
2024-02-03T08:50:32.305Z,2.81
2024-02-03T09:02:32.795Z,4.05
2024-02-03T09:14:33.276Z,5.12
2024-02-03T09:26:33.701Z,6.76
2024-02-03T09:38:34.170Z,7.35
2024-02-03T09:50:34.597Z,8.51
2024-02-03T10:02:35.063Z,9.64
2024-02-03T10:14:35.479Z,10.49
2024-02-03T10:26:35.935Z,10.55
2024-02-03T10:38:36.433Z,11.03
2024-02-03T10:50:36.892Z,11.30
2024-02-03T11:02:37.346Z,12.70
2024-02-03T11:14:37.841Z,11.68
2024-02-03T11:26:38.220Z,11.75
2024-02-03T11:38:38.680Z,11.22
2024-02-03T11:50:39.153Z,11.69
2024-02-03T12:02:39.581Z,12.39
2024-02-03T12:14:40.035Z,14.50
2024-02-03T12:26:40.486Z,14.89
2024-02-03T12:38:41.029Z,15.53
2024-02-03T12:50:41.411Z,13.97
2024-02-03T13:02:41.950Z,14.33
2024-02-03T13:14:42.309Z,14.30
2024-02-03T13:26:42.801Z,14.69
2024-02-03T13:38:43.259Z,15.84
2024-02-03T13:50:43.714Z,14.05
2024-02-03T14:02:44.216Z,13.29
2024-02-03T14:14:44.646Z,11.63
2024-02-03T14:26:45.102Z,10.47
2024-02-03T14:38:45.519Z,9.95
2024-02-03T14:50:45.951Z,9.38
2024-02-03T15:02:46.452Z,8.32
2024-02-03T15:14:46.861Z,7.80
2024-02-03T15:26:47.426Z,7.13
2024-02-03T15:38:47.858Z,6.78
2024-02-03T15:50:48.238Z,6.46
2024-02-03T16:02:48.741Z,5.93
2024-02-03T16:14:49.128Z,4.77
2024-02-03T16:26:49.581Z,5.06
2024-02-03T16:38:50.088Z,4.40
2024-02-03T16:50:50.581Z,4.00
2024-02-03T17:02:51.112Z,3.84
2024-02-03T17:14:51.428Z,3.52
2024-02-03T17:26:51.888Z,3.26
2024-02-03T17:38:52.317Z,2.89
2024-02-03T17:50:52.777Z,3.02
2024-02-03T18:02:53.449Z,2.88
2024-02-03T18:14:53.690Z,2.61
2024-02-03T18:26:54.162Z,2.16
2024-02-03T18:38:54.578Z,1.92
2024-02-03T18:50:55.055Z,1.48
2024-02-03T19:02:55.501Z,1.47
2024-02-03T19:14:55.965Z,1.47
2024-02-03T19:26:56.426Z,1.54
2024-02-03T19:38:56.881Z,1.65
2024-02-03T19:50:57.396Z,1.71
2024-02-03T20:02:57.764Z,2.20
2024-02-03T20:14:58.238Z,2.12
2024-02-03T20:26:58.637Z,1.95
2024-02-03T20:38:59.122Z,2.17
2024-02-03T20:50:59.886Z,2.11
2024-02-03T21:03:00.498Z,2.18
2024-02-03T21:15:00.502Z,2.05
2024-02-03T21:27:00.926Z,2.18
2024-02-03T21:39:01.384Z,1.91
2024-02-03T21:51:01.819Z,2.02
2024-02-03T22:03:02.279Z,2.16
2024-02-03T22:15:02.758Z,2.28
2024-02-03T22:27:03.176Z,2.35
2024-02-03T22:39:03.635Z,2.60
2024-02-03T22:51:04.096Z,2.41
2024-02-03T23:03:04.681Z,2.42
2024-02-03T23:15:05.013Z,2.50
2024-02-03T23:27:05.442Z,2.54
2024-02-03T23:39:05.894Z,2.48
2024-02-03T23:51:06.361Z,2.61
